sensor_id;sensor_type;location;lat;lon;timestamp;temperature;humidity
19363;DHT22;9817;50.80926400;5.16316200;2023-03-21T00:01:02;11.50;99.90
19363;DHT22;9817;50.80926400;5.16316200;2023-03-21T00:03:32;11.60;99.90
19363;DHT22;9817;50.80926400;5.16316200;2023-03-21T00:06:03;11.60;99.90
19363;DHT22;9817;50.80926400;5.16316200;2023-03-21T00:08:29;11.60;99.90
19363;DHT22;9817;50.80926400;5.16316200;2023-03-21T00:10:59;11.50;99.90
19363;DHT22;9817;50.80926400;5.16316200;2023-03-21T00:13:26;11.50;99.90
19363;DHT22;9817;50.80926400;5.16316200;2023-03-21T00:15:52;11.50;99.90
19363;DHT22;9817;50.80926400;5.16316200;2023-03-21T00:18:22;11.50;99.90
19363;DHT22;9817;50.80926400;5.16316200;2023-03-21T00:21:02;11.70;99.90
19363;DHT22;9817;50.80926400;5.16316200;2023-03-21T00:23:31;11.70;99.90
19363;DHT22;9817;50.80926400;5.16316200;2023-03-21T00:25:57;11.50;99.90
19363;DHT22;9817;50.80926400;5.16316200;2023-03-21T00:28:24;11.50;99.90
19363;DHT22;9817;50.80926400;5.16316200;2023-03-21T00:30:50;11.50;99.90
19363;DHT22;9817;50.80926400;5.16316200;2023-03-21T00:33:16;11.50;99.90
19363;DHT22;9817;50.80926400;5.16316200;2023-03-21T00:35:45;11.50;99.90
19363;DHT22;9817;50.80926400;5.16316200;2023-03-21T00:38:13;11.50;99.90
19363;DHT22;9817;50.80926400;5.16316200;2023-03-21T00:40:39;11.50;99.90
19363;DHT22;9817;50.80926400;5.16316200;2023-03-21T00:43:05;11.50;99.90
19363;DHT22;9817;50.80926400;5.16316200;2023-03-21T00:45:30;11.60;99.90
19363;DHT22;9817;50.80926400;5.16316200;2023-03-21T00:47:56;11.50;99.90
19363;DHT22;9817;50.80926400;5.16316200;2023-03-21T00:50:23;11.60;99.90
19363;DHT22;9817;50.80926400;5.16316200;2023-03-21T00:52:48;11.70;99.90
19363;DHT22;9817;50.80926400;5.16316200;2023-03-21T00:55:17;11.80;99.90
19363;DHT22;9817;50.80926400;5.16316200;2023-03-21T00:57:43;11.80;99.90
19363;DHT22;9817;50.80926400;5.16316200;2023-03-21T01:00:11;11.90;99.90
19363;DHT22;9817;50.80926400;5.16316200;2023-03-21T01:02:38;11.80;99.90
19363;DHT22;9817;50.80926400;5.16316200;2023-03-21T01:05:08;11.70;99.90
19363;DHT22;9817;50.80926400;5.16316200;2023-03-21T01:07:33;11.70;99.90
19363;DHT22;9817;50.80926400;5.16316200;2023-03-21T01:09:59;11.60;99.90
19363;DHT22;9817;50.80926400;5.16316200;2023-03-21T01:12:25;11.40;99.90
19363;DHT22;9817;50.80926400;5.16316200;2023-03-21T01:14:51;11.40;99.90
19363;DHT22;9817;50.80926400;5.16316200;2023-03-21T01:17:17;11.50;99.90
19363;DHT22;9817;50.80926400;5.16316200;2023-03-21T01:19:43;11.40;99.90
19363;DHT22;9817;50.80926400;5.16316200;2023-03-21T01:22:08;11.40;99.90
19363;DHT22;9817;50.80926400;5.16316200;2023-03-21T01:24:34;11.40;99.90
19363;DHT22;9817;50.80926400;5.16316200;2023-03-21T01:27:02;11.40;99.90
19363;DHT22;9817;50.80926400;5.16316200;2023-03-21T01:29:27;11.60;99.90
19363;DHT22;9817;50.80926400;5.16316200;2023-03-21T01:31:53;11.40;99.90
19363;DHT22;9817;50.80926400;5.16316200;2023-03-21T01:34:20;11.50;99.90
19363;DHT22;9817;50.80926400;5.16316200;2023-03-21T01:36:45;11.50;99.90
19363;DHT22;9817;50.80926400;5.16316200;2023-03-21T01:39:11;11.50;99.90
19363;DHT22;9817;50.80926400;5.16316200;2023-03-21T01:41:39;11.40;99.90
19363;DHT22;9817;50.80926400;5.16316200;2023-03-21T01:44:04;11.50;99.90
19363;DHT22;9817;50.80926400;5.16316200;2023-03-21T01:46:42;11.50;99.90
19363;DHT22;9817;50.80926400;5.16316200;2023-03-21T01:49:45;11.50;99.90
19363;DHT22;9817;50.80926400;5.16316200;2023-03-21T01:52:16;11.40;99.90
19363;DHT22;9817;50.80926400;5.16316200;2023-03-21T01:54:43;11.40;99.90
19363;DHT22;9817;50.80926400;5.16316200;2023-03-21T01:57:32;11.40;99.90
19363;DHT22;9817;50.80926400;5.16316200;2023-03-21T02:00:00;11.30;99.90
19363;DHT22;9817;50.80926400;5.16316200;2023-03-21T02:02:36;11.30;99.90
19363;DHT22;9817;50.80926400;5.16316200;2023-03-21T02:05:14;11.20;99.90
19363;DHT22;9817;50.80926400;5.16316200;2023-03-21T02:07:42;11.10;99.90
19363;DHT22;9817;50.80926400;5.16316200;2023-03-21T02:10:10;11.10;99.90
19363;DHT22;9817;50.80926400;5.16316200;2023-03-21T02:12:37;11.20;99.90
19363;DHT22;9817;50.80926400;5.16316200;2023-03-21T02:15:03;11.40;99.90
19363;DHT22;9817;50.80926400;5.16316200;2023-03-21T02:17:44;11.40;99.90
19363;DHT22;9817;50.80926400;5.16316200;2023-03-21T02:28:29;11.40;99.90
19363;DHT22;9817;50.80926400;5.16316200;2023-03-21T02:42:26;11.60;99.90
19363;DHT22;9817;50.80926400;5.16316200;2023-03-21T02:45:17;11.60;99.90
19363;DHT22;9817;50.80926400;5.16316200;2023-03-21T02:47:57;11.50;99.90
19363;DHT22;9817;50.80926400;5.16316200;2023-03-21T02:53:03;11.80;99.90
19363;DHT22;9817;50.80926400;5.16316200;2023-03-21T02:55:31;11.80;99.90
19363;DHT22;9817;50.80926400;5.16316200;2023-03-21T02:57:58;11.80;99.90
19363;DHT22;9817;50.80926400;5.16316200;2023-03-21T03:00:26;11.80;99.90
19363;DHT22;9817;50.80926400;5.16316200;2023-03-21T03:02:53;11.80;99.90
19363;DHT22;9817;50.80926400;5.16316200;2023-03-21T03:05:22;11.70;99.90
19363;DHT22;9817;50.80926400;5.16316200;2023-03-21T03:08:21;11.80;99.90
19363;DHT22;9817;50.80926400;5.16316200;2023-03-21T03:19:31;12.00;99.90
19363;DHT22;9817;50.80926400;5.16316200;2023-03-21T03:22:05;12.00;99.90
19363;DHT22;9817;50.80926400;5.16316200;2023-03-21T03:24:37;12.00;99.90
19363;DHT22;9817;50.80926400;5.16316200;2023-03-21T03:27:27;12.00;99.90
19363;DHT22;9817;50.80926400;5.16316200;2023-03-21T03:29:56;12.10;99.90
19363;DHT22;9817;50.80926400;5.16316200;2023-03-21T03:33:07;12.10;99.90
19363;DHT22;9817;50.80926400;5.16316200;2023-03-21T03:35:16;12.10;99.90
19363;DHT22;9817;50.80926400;5.16316200;2023-03-21T03:37:45;12.00;99.90
19363;DHT22;9817;50.80926400;5.16316200;2023-03-21T03:40:19;12.00;99.90
19363;DHT22;9817;50.80926400;5.16316200;2023-03-21T03:42:53;12.00;99.90
19363;DHT22;9817;50.80926400;5.16316200;2023-03-21T03:45:27;12.00;99.90
19363;DHT22;9817;50.80926400;5.16316200;2023-03-21T03:48:14;12.10;99.90
19363;DHT22;9817;50.80926400;5.16316200;2023-03-21T03:53:32;12.20;99.90
19363;DHT22;9817;50.80926400;5.16316200;2023-03-21T03:56:01;12.20;99.90
19363;DHT22;9817;50.80926400;5.16316200;2023-03-21T03:58:29;12.30;99.90
19363;DHT22;9817;50.80926400;5.16316200;2023-03-21T04:00:55;12.30;99.90
19363;DHT22;9817;50.80926400;5.16316200;2023-03-21T04:03:21;12.50;99.90
19363;DHT22;9817;50.80926400;5.16316200;2023-03-21T04:05:47;12.50;99.90
19363;DHT22;9817;50.80926400;5.16316200;2023-03-21T04:08:14;12.60;99.90
19363;DHT22;9817;50.80926400;5.16316200;2023-03-21T04:10:41;12.60;99.90
19363;DHT22;9817;50.80926400;5.16316200;2023-03-21T04:13:07;12.60;99.90
19363;DHT22;9817;50.80926400;5.16316200;2023-03-21T04:15:33;12.60;99.90
19363;DHT22;9817;50.80926400;5.16316200;2023-03-21T04:17:59;12.70;99.90
19363;DHT22;9817;50.80926400;5.16316200;2023-03-21T04:20:25;12.60;99.90
19363;DHT22;9817;50.80926400;5.16316200;2023-03-21T04:22:50;12.40;99.90
19363;DHT22;9817;50.80926400;5.16316200;2023-03-21T04:25:16;12.40;99.90
19363;DHT22;9817;50.80926400;5.16316200;2023-03-21T04:27:42;12.20;99.90
19363;DHT22;9817;50.80926400;5.16316200;2023-03-21T04:30:08;12.30;99.90
19363;DHT22;9817;50.80926400;5.16316200;2023-03-21T04:32:36;12.20;99.90
19363;DHT22;9817;50.80926400;5.16316200;2023-03-21T04:35:05;12.10;99.90
19363;DHT22;9817;50.80926400;5.16316200;2023-03-21T04:37:30;12.00;99.90
19363;DHT22;9817;50.80926400;5.16316200;2023-03-21T04:39:58;11.90;99.90
19363;DHT22;9817;50.80926400;5.16316200;2023-03-21T04:42:23;11.90;99.90
19363;DHT22;9817;50.80926400;5.16316200;2023-03-21T04:44:49;12.00;99.90
19363;DHT22;9817;50.80926400;5.16316200;2023-03-21T04:47:15;12.20;99.90
19363;DHT22;9817;50.80926400;5.16316200;2023-03-21T04:49:45;12.30;99.90
19363;DHT22;9817;50.80926400;5.16316200;2023-03-21T04:52:14;12.30;99.90
19363;DHT22;9817;50.80926400;5.16316200;2023-03-21T04:54:39;12.10;99.90
19363;DHT22;9817;50.80926400;5.16316200;2023-03-21T04:57:05;11.90;99.90
19363;DHT22;9817;50.80926400;5.16316200;2023-03-21T04:59:31;11.90;99.90
19363;DHT22;9817;50.80926400;5.16316200;2023-03-21T05:01:56;11.80;99.90
19363;DHT22;9817;50.80926400;5.16316200;2023-03-21T05:04:23;11.90;99.90
19363;DHT22;9817;50.80926400;5.16316200;2023-03-21T05:06:50;11.80;99.90
19363;DHT22;9817;50.80926400;5.16316200;2023-03-21T05:09:15;11.60;99.90
19363;DHT22;9817;50.80926400;5.16316200;2023-03-21T05:11:41;11.50;99.90
19363;DHT22;9817;50.80926400;5.16316200;2023-03-21T05:14:09;11.50;99.90
19363;DHT22;9817;50.80926400;5.16316200;2023-03-21T05:16:37;11.40;99.90
19363;DHT22;9817;50.80926400;5.16316200;2023-03-21T05:19:03;11.30;99.90
19363;DHT22;9817;50.80926400;5.16316200;2023-03-21T05:21:31;11.40;99.90
19363;DHT22;9817;50.80926400;5.16316200;2023-03-21T05:24:08;11.30;99.90
19363;DHT22;9817;50.80926400;5.16316200;2023-03-21T05:26:37;11.40;99.90
19363;DHT22;9817;50.80926400;5.16316200;2023-03-21T05:29:03;11.40;99.90
19363;DHT22;9817;50.80926400;5.16316200;2023-03-21T05:31:29;11.30;99.90
19363;DHT22;9817;50.80926400;5.16316200;2023-03-21T05:33:55;11.20;99.90
19363;DHT22;9817;50.80926400;5.16316200;2023-03-21T05:36:20;11.30;99.90
19363;DHT22;9817;50.80926400;5.16316200;2023-03-21T05:38:46;11.20;99.90
19363;DHT22;9817;50.80926400;5.16316200;2023-03-21T05:41:12;11.20;99.90
19363;DHT22;9817;50.80926400;5.16316200;2023-03-21T05:43:38;11.20;99.90
19363;DHT22;9817;50.80926400;5.16316200;2023-03-21T05:46:04;11.20;99.90
19363;DHT22;9817;50.80926400;5.16316200;2023-03-21T05:48:30;11.20;99.90
19363;DHT22;9817;50.80926400;5.16316200;2023-03-21T05:50:55;11.30;99.90
19363;DHT22;9817;50.80926400;5.16316200;2023-03-21T05:53:21;11.40;99.90
19363;DHT22;9817;50.80926400;5.16316200;2023-03-21T05:55:47;11.40;99.90
19363;DHT22;9817;50.80926400;5.16316200;2023-03-21T05:58:12;11.50;99.90
19363;DHT22;9817;50.80926400;5.16316200;2023-03-21T06:00:38;11.60;99.90
19363;DHT22;9817;50.80926400;5.16316200;2023-03-21T06:03:03;11.50;99.90
19363;DHT22;9817;50.80926400;5.16316200;2023-03-21T06:05:29;11.40;99.90
19363;DHT22;9817;50.80926400;5.16316200;2023-03-21T06:07:54;11.30;99.90
19363;DHT22;9817;50.80926400;5.16316200;2023-03-21T06:10:20;11.20;99.90
19363;DHT22;9817;50.80926400;5.16316200;2023-03-21T06:12:46;11.20;99.90
19363;DHT22;9817;50.80926400;5.16316200;2023-03-21T06:15:11;11.20;99.90
19363;DHT22;9817;50.80926400;5.16316200;2023-03-21T06:17:37;11.20;99.90
19363;DHT22;9817;50.80926400;5.16316200;2023-03-21T06:20:04;11.20;99.90
19363;DHT22;9817;50.80926400;5.16316200;2023-03-21T06:22:31;11.30;99.90
19363;DHT22;9817;50.80926400;5.16316200;2023-03-21T06:24:57;11.30;99.90
19363;DHT22;9817;50.80926400;5.16316200;2023-03-21T06:27:23;11.40;99.90
19363;DHT22;9817;50.80926400;5.16316200;2023-03-21T06:29:48;11.50;99.90
19363;DHT22;9817;50.80926400;5.16316200;2023-03-21T06:32:14;11.40;99.90
19363;DHT22;9817;50.80926400;5.16316200;2023-03-21T06:34:40;11.40;99.90
19363;DHT22;9817;50.80926400;5.16316200;2023-03-21T06:37:06;11.60;99.90
19363;DHT22;9817;50.80926400;5.16316200;2023-03-21T06:39:32;11.70;99.90
19363;DHT22;9817;50.80926400;5.16316200;2023-03-21T06:41:58;11.90;99.90
19363;DHT22;9817;50.80926400;5.16316200;2023-03-21T06:44:24;11.90;99.90
19363;DHT22;9817;50.80926400;5.16316200;2023-03-21T06:46:50;11.90;99.90
19363;DHT22;9817;50.80926400;5.16316200;2023-03-21T06:49:16;11.90;99.90
19363;DHT22;9817;50.80926400;5.16316200;2023-03-21T06:51:42;11.90;99.90
19363;DHT22;9817;50.80926400;5.16316200;2023-03-21T06:54:08;12.00;99.90
19363;DHT22;9817;50.80926400;5.16316200;2023-03-21T06:56:34;11.80;99.90
19363;DHT22;9817;50.80926400;5.16316200;2023-03-21T06:59:00;11.70;99.90
19363;DHT22;9817;50.80926400;5.16316200;2023-03-21T07:01:26;11.70;99.90
19363;DHT22;9817;50.80926400;5.16316200;2023-03-21T07:03:53;11.60;99.90
19363;DHT22;9817;50.80926400;5.16316200;2023-03-21T07:06:21;11.60;99.90
19363;DHT22;9817;50.80926400;5.16316200;2023-03-21T07:08:47;11.60;99.90
19363;DHT22;9817;50.80926400;5.16316200;2023-03-21T07:11:13;11.60;99.90
19363;DHT22;9817;50.80926400;5.16316200;2023-03-21T07:13:39;11.80;99.90
19363;DHT22;9817;50.80926400;5.16316200;2023-03-21T07:16:05;11.90;99.90
19363;DHT22;9817;50.80926400;5.16316200;2023-03-21T07:18:31;11.80;99.90
19363;DHT22;9817;50.80926400;5.16316200;2023-03-21T07:20:57;12.00;99.90
19363;DHT22;9817;50.80926400;5.16316200;2023-03-21T07:23:25;11.90;99.90
19363;DHT22;9817;50.80926400;5.16316200;2023-03-21T07:25:51;11.90;99.90
19363;DHT22;9817;50.80926400;5.16316200;2023-03-21T07:28:18;11.80;99.90
19363;DHT22;9817;50.80926400;5.16316200;2023-03-21T07:30:44;11.70;99.90
19363;DHT22;9817;50.80926400;5.16316200;2023-03-21T07:33:11;11.60;99.90
19363;DHT22;9817;50.80926400;5.16316200;2023-03-21T07:35:37;11.80;99.90
19363;DHT22;9817;50.80926400;5.16316200;2023-03-21T07:38:06;11.80;99.90
19363;DHT22;9817;50.80926400;5.16316200;2023-03-21T07:40:32;11.70;99.90
19363;DHT22;9817;50.80926400;5.16316200;2023-03-21T07:42:57;11.60;99.90
19363;DHT22;9817;50.80926400;5.16316200;2023-03-21T07:45:23;11.50;99.90
19363;DHT22;9817;50.80926400;5.16316200;2023-03-21T07:47:51;11.40;99.90
19363;DHT22;9817;50.80926400;5.16316200;2023-03-21T07:50:17;11.10;99.90
19363;DHT22;9817;50.80926400;5.16316200;2023-03-21T07:52:43;11.10;99.90
19363;DHT22;9817;50.80926400;5.16316200;2023-03-21T07:55:09;11.10;99.90
19363;DHT22;9817;50.80926400;5.16316200;2023-03-21T07:57:35;11.00;99.90
19363;DHT22;9817;50.80926400;5.16316200;2023-03-21T08:00:02;11.10;99.90
19363;DHT22;9817;50.80926400;5.16316200;2023-03-21T08:02:28;11.00;99.90
19363;DHT22;9817;50.80926400;5.16316200;2023-03-21T08:04:54;11.20;99.90
19363;DHT22;9817;50.80926400;5.16316200;2023-03-21T08:07:20;11.30;99.90
19363;DHT22;9817;50.80926400;5.16316200;2023-03-21T08:09:46;11.30;99.90
19363;DHT22;9817;50.80926400;5.16316200;2023-03-21T08:12:12;11.40;99.90
19363;DHT22;9817;50.80926400;5.16316200;2023-03-21T08:14:37;11.30;99.90
19363;DHT22;9817;50.80926400;5.16316200;2023-03-21T08:17:05;11.50;99.90
19363;DHT22;9817;50.80926400;5.16316200;2023-03-21T08:19:31;11.50;99.90
19363;DHT22;9817;50.80926400;5.16316200;2023-03-21T08:21:56;11.70;99.90
19363;DHT22;9817;50.80926400;5.16316200;2023-03-21T08:24:26;11.70;99.90
19363;DHT22;9817;50.80926400;5.16316200;2023-03-21T08:26:52;11.70;99.90
19363;DHT22;9817;50.80926400;5.16316200;2023-03-21T08:29:18;11.90;99.90
19363;DHT22;9817;50.80926400;5.16316200;2023-03-21T08:31:43;12.00;99.90
19363;DHT22;9817;50.80926400;5.16316200;2023-03-21T08:34:09;12.00;99.90
19363;DHT22;9817;50.80926400;5.16316200;2023-03-21T08:36:36;12.10;99.90
19363;DHT22;9817;50.80926400;5.16316200;2023-03-21T08:39:03;12.20;99.90
19363;DHT22;9817;50.80926400;5.16316200;2023-03-21T08:41:34;12.20;99.90
19363;DHT22;9817;50.80926400;5.16316200;2023-03-21T08:44:00;12.40;99.90
19363;DHT22;9817;50.80926400;5.16316200;2023-03-21T08:46:26;12.50;99.90
19363;DHT22;9817;50.80926400;5.16316200;2023-03-21T08:48:53;12.40;99.90
19363;DHT22;9817;50.80926400;5.16316200;2023-03-21T08:51:19;12.30;99.90
19363;DHT22;9817;50.80926400;5.16316200;2023-03-21T08:53:45;12.50;99.90
19363;DHT22;9817;50.80926400;5.16316200;2023-03-21T08:56:10;12.60;99.90
19363;DHT22;9817;50.80926400;5.16316200;2023-03-21T08:58:36;12.70;99.90
19363;DHT22;9817;50.80926400;5.16316200;2023-03-21T09:01:04;12.80;99.90
19363;DHT22;9817;50.80926400;5.16316200;2023-03-21T09:03:31;12.70;99.90
19363;DHT22;9817;50.80926400;5.16316200;2023-03-21T09:05:57;12.70;99.90
19363;DHT22;9817;50.80926400;5.16316200;2023-03-21T09:08:23;12.70;99.90
19363;DHT22;9817;50.80926400;5.16316200;2023-03-21T09:10:52;12.70;99.90
19363;DHT22;9817;50.80926400;5.16316200;2023-03-21T09:13:18;12.60;99.90
19363;DHT22;9817;50.80926400;5.16316200;2023-03-21T09:15:44;12.60;99.90
19363;DHT22;9817;50.80926400;5.16316200;2023-03-21T09:18:10;12.50;99.90
19363;DHT22;9817;50.80926400;5.16316200;2023-03-21T09:20:41;12.40;99.90
19363;DHT22;9817;50.80926400;5.16316200;2023-03-21T09:23:08;12.20;99.90
19363;DHT22;9817;50.80926400;5.16316200;2023-03-21T09:25:35;12.50;99.90
19363;DHT22;9817;50.80926400;5.16316200;2023-03-21T09:28:02;12.40;99.90
19363;DHT22;9817;50.80926400;5.16316200;2023-03-21T09:30:32;12.50;99.90
19363;DHT22;9817;50.80926400;5.16316200;2023-03-21T09:33:01;12.40;99.90
19363;DHT22;9817;50.80926400;5.16316200;2023-03-21T09:35:28;12.30;99.90
19363;DHT22;9817;50.80926400;5.16316200;2023-03-21T09:37:54;12.40;99.90
19363;DHT22;9817;50.80926400;5.16316200;2023-03-21T09:46:09;12.60;99.90
19363;DHT22;9817;50.80926400;5.16316200;2023-03-21T09:51:13;12.80;99.90
19363;DHT22;9817;50.80926400;5.16316200;2023-03-21T09:53:41;12.80;99.90
19363;DHT22;9817;50.80926400;5.16316200;2023-03-21T09:56:10;12.80;99.90
19363;DHT22;9817;50.80926400;5.16316200;2023-03-21T09:58:42;12.80;99.90
19363;DHT22;9817;50.80926400;5.16316200;2023-03-21T10:01:17;12.90;99.90
19363;DHT22;9817;50.80926400;5.16316200;2023-03-21T10:03:52;12.90;99.90
19363;DHT22;9817;50.80926400;5.16316200;2023-03-21T10:06:19;13.10;99.90
19363;DHT22;9817;50.80926400;5.16316200;2023-03-21T10:08:59;13.40;99.90
19363;DHT22;9817;50.80926400;5.16316200;2023-03-21T10:11:49;13.50;99.90
19363;DHT22;9817;50.80926400;5.16316200;2023-03-21T10:14:29;13.60;99.90
19363;DHT22;9817;50.80926400;5.16316200;2023-03-21T10:17:22;13.50;99.90
19363;DHT22;9817;50.80926400;5.16316200;2023-03-21T10:20:23;13.70;99.90
19363;DHT22;9817;50.80926400;5.16316200;2023-03-21T10:22:53;13.80;99.90
19363;DHT22;9817;50.80926400;5.16316200;2023-03-21T10:25:24;13.50;99.90
19363;DHT22;9817;50.80926400;5.16316200;2023-03-21T10:27:51;13.50;99.90
19363;DHT22;9817;50.80926400;5.16316200;2023-03-21T10:30:27;13.70;99.90
19363;DHT22;9817;50.80926400;5.16316200;2023-03-21T10:32:57;13.60;99.90
19363;DHT22;9817;50.80926400;5.16316200;2023-03-21T10:35:23;13.60;99.90
19363;DHT22;9817;50.80926400;5.16316200;2023-03-21T10:37:50;13.80;99.90
19363;DHT22;9817;50.80926400;5.16316200;2023-03-21T10:40:16;14.10;99.90
19363;DHT22;9817;50.80926400;5.16316200;2023-03-21T10:42:42;14.20;99.90
19363;DHT22;9817;50.80926400;5.16316200;2023-03-21T10:45:18;14.20;99.90
19363;DHT22;9817;50.80926400;5.16316200;2023-03-21T10:47:47;14.20;99.90
19363;DHT22;9817;50.80926400;5.16316200;2023-03-21T10:50:16;14.30;99.90
19363;DHT22;9817;50.80926400;5.16316200;2023-03-21T10:52:48;14.50;99.90
19363;DHT22;9817;50.80926400;5.16316200;2023-03-21T10:55:21;14.60;99.90
19363;DHT22;9817;50.80926400;5.16316200;2023-03-21T10:57:56;14.60;99.90
19363;DHT22;9817;50.80926400;5.16316200;2023-03-21T11:00:27;14.60;99.90
19363;DHT22;9817;50.80926400;5.16316200;2023-03-21T11:02:54;14.50;99.90
19363;DHT22;9817;50.80926400;5.16316200;2023-03-21T11:05:35;14.50;99.90
19363;DHT22;9817;50.80926400;5.16316200;2023-03-21T11:10:34;14.50;99.90
19363;DHT22;9817;50.80926400;5.16316200;2023-03-21T11:13:05;14.30;99.90
19363;DHT22;9817;50.80926400;5.16316200;2023-03-21T11:15:51;14.40;99.90
19363;DHT22;9817;50.80926400;5.16316200;2023-03-21T11:18:23;14.40;99.90
19363;DHT22;9817;50.80926400;5.16316200;2023-03-21T11:21:11;14.40;99.90
19363;DHT22;9817;50.80926400;5.16316200;2023-03-21T11:23:43;14.40;99.90
19363;DHT22;9817;50.80926400;5.16316200;2023-03-21T11:26:17;14.40;99.90
19363;DHT22;9817;50.80926400;5.16316200;2023-03-21T11:28:45;14.50;99.90
19363;DHT22;9817;50.80926400;5.16316200;2023-03-21T11:31:11;14.50;99.90
19363;DHT22;9817;50.80926400;5.16316200;2023-03-21T11:33:57;14.30;99.90
19363;DHT22;9817;50.80926400;5.16316200;2023-03-21T11:36:30;14.60;99.90
19363;DHT22;9817;50.80926400;5.16316200;2023-03-21T11:39:11;14.80;99.90
19363;DHT22;9817;50.80926400;5.16316200;2023-03-21T11:41:40;14.90;99.90
19363;DHT22;9817;50.80926400;5.16316200;2023-03-21T11:44:08;15.20;99.90
19363;DHT22;9817;50.80926400;5.16316200;2023-03-21T11:46:48;15.40;99.90
19363;DHT22;9817;50.80926400;5.16316200;2023-03-21T11:49:14;15.40;99.90
19363;DHT22;9817;50.80926400;5.16316200;2023-03-21T11:51:58;15.30;99.90
19363;DHT22;9817;50.80926400;5.16316200;2023-03-21T11:54:45;15.20;99.90
19363;DHT22;9817;50.80926400;5.16316200;2023-03-21T12:00:05;15.60;99.90
19363;DHT22;9817;50.80926400;5.16316200;2023-03-21T12:05:42;15.90;99.90
19363;DHT22;9817;50.80926400;5.16316200;2023-03-21T12:08:37;16.10;99.90
19363;DHT22;9817;50.80926400;5.16316200;2023-03-21T12:16:19;16.10;99.90
19363;DHT22;9817;50.80926400;5.16316200;2023-03-21T12:30:03;16.30;99.90
19363;DHT22;9817;50.80926400;5.16316200;2023-03-21T12:35:34;16.80;99.90
19363;DHT22;9817;50.80926400;5.16316200;2023-03-21T12:38:22;16.80;99.90
19363;DHT22;9817;50.80926400;5.16316200;2023-03-21T12:41:33;17.00;99.90
19363;DHT22;9817;50.80926400;5.16316200;2023-03-21T12:44:19;16.80;99.90
19363;DHT22;9817;50.80926400;5.16316200;2023-03-21T12:46:56;16.70;99.90
19363;DHT22;9817;50.80926400;5.16316200;2023-03-21T12:52:21;16.50;99.90
19363;DHT22;9817;50.80926400;5.16316200;2023-03-21T12:55:01;16.50;99.90
19363;DHT22;9817;50.80926400;5.16316200;2023-03-21T12:57:36;16.50;99.90
19363;DHT22;9817;50.80926400;5.16316200;2023-03-21T13:02:48;17.20;99.90
19363;DHT22;9817;50.80926400;5.16316200;2023-03-21T13:07:47;17.40;99.90
19363;DHT22;9817;50.80926400;5.16316200;2023-03-21T13:10:17;17.40;99.90
19363;DHT22;9817;50.80926400;5.16316200;2023-03-21T13:20:56;16.60;99.90
19363;DHT22;9817;50.80926400;5.16316200;2023-03-21T13:23:23;16.60;99.90
19363;DHT22;9817;50.80926400;5.16316200;2023-03-21T13:25:52;16.60;99.90
19363;DHT22;9817;50.80926400;5.16316200;2023-03-21T13:28:27;16.80;99.90
19363;DHT22;9817;50.80926400;5.16316200;2023-03-21T13:33:39;17.50;99.90
19363;DHT22;9817;50.80926400;5.16316200;2023-03-21T13:36:12;17.60;99.90
19363;DHT22;9817;50.80926400;5.16316200;2023-03-21T13:38:49;17.70;99.90
19363;DHT22;9817;50.80926400;5.16316200;2023-03-21T13:41:25;17.70;99.90
19363;DHT22;9817;50.80926400;5.16316200;2023-03-21T13:48:54;16.90;99.90
19363;DHT22;9817;50.80926400;5.16316200;2023-03-21T13:54:03;16.90;99.90
19363;DHT22;9817;50.80926400;5.16316200;2023-03-21T13:59:37;17.10;99.90
19363;DHT22;9817;50.80926400;5.16316200;2023-03-21T14:02:29;17.20;99.90
19363;DHT22;9817;50.80926400;5.16316200;2023-03-21T14:05:05;17.40;99.90
19363;DHT22;9817;50.80926400;5.16316200;2023-03-21T14:07:36;17.60;99.90
19363;DHT22;9817;50.80926400;5.16316200;2023-03-21T14:10:15;17.60;99.90
19363;DHT22;9817;50.80926400;5.16316200;2023-03-21T14:12:43;17.40;99.90
19363;DHT22;9817;50.80926400;5.16316200;2023-03-21T14:15:29;17.50;99.90
19363;DHT22;9817;50.80926400;5.16316200;2023-03-21T14:18:00;17.60;99.90
19363;DHT22;9817;50.80926400;5.16316200;2023-03-21T14:20:33;17.80;99.90
19363;DHT22;9817;50.80926400;5.16316200;2023-03-21T14:23:03;17.80;99.90
19363;DHT22;9817;50.80926400;5.16316200;2023-03-21T14:25:34;18.00;99.90
19363;DHT22;9817;50.80926400;5.16316200;2023-03-21T14:28:04;18.20;99.90
19363;DHT22;9817;50.80926400;5.16316200;2023-03-21T14:30:41;18.30;99.90
19363;DHT22;9817;50.80926400;5.16316200;2023-03-21T14:35:46;18.10;99.90
19363;DHT22;9817;50.80926400;5.16316200;2023-03-21T14:38:27;18.20;99.90
19363;DHT22;9817;50.80926400;5.16316200;2023-03-21T14:40:56;18.20;99.90
19363;DHT22;9817;50.80926400;5.16316200;2023-03-21T14:43:23;18.40;99.90
19363;DHT22;9817;50.80926400;5.16316200;2023-03-21T14:45:52;18.30;99.90
19363;DHT22;9817;50.80926400;5.16316200;2023-03-21T14:48:19;18.10;99.90
19363;DHT22;9817;50.80926400;5.16316200;2023-03-21T14:50:53;17.90;99.90
19363;DHT22;9817;50.80926400;5.16316200;2023-03-21T14:56:00;17.70;99.90
19363;DHT22;9817;50.80926400;5.16316200;2023-03-21T14:58:27;17.50;99.90
19363;DHT22;9817;50.80926400;5.16316200;2023-03-21T15:00:57;17.60;99.90
19363;DHT22;9817;50.80926400;5.16316200;2023-03-21T15:03:25;17.60;99.90
19363;DHT22;9817;50.80926400;5.16316200;2023-03-21T15:05:53;17.70;99.90
19363;DHT22;9817;50.80926400;5.16316200;2023-03-21T15:08:24;17.60;99.90
19363;DHT22;9817;50.80926400;5.16316200;2023-03-21T15:13:22;17.50;99.90
19363;DHT22;9817;50.80926400;5.16316200;2023-03-21T15:15:49;17.50;99.90
19363;DHT22;9817;50.80926400;5.16316200;2023-03-21T15:18:24;17.50;99.90
19363;DHT22;9817;50.80926400;5.16316200;2023-03-21T15:20:51;17.50;99.90
19363;DHT22;9817;50.80926400;5.16316200;2023-03-21T15:23:27;17.40;99.90
19363;DHT22;9817;50.80926400;5.16316200;2023-03-21T15:25:55;17.40;99.90
19363;DHT22;9817;50.80926400;5.16316200;2023-03-21T15:28:20;17.40;99.90
19363;DHT22;9817;50.80926400;5.16316200;2023-03-21T15:30:48;17.20;99.90
19363;DHT22;9817;50.80926400;5.16316200;2023-03-21T15:33:16;17.30;99.90
19363;DHT22;9817;50.80926400;5.16316200;2023-03-21T15:36:11;17.50;99.90